createdAt,value
2023-01-20T00:01:30.287Z,18.33
2023-01-20T00:03:58.462Z,15.83
2023-01-20T00:06:29.689Z,16.17
2023-01-20T00:09:00.567Z,18.33
2023-01-20T00:11:28.372Z,19.97
2023-01-20T00:13:56.762Z,20.20
2023-01-20T00:16:23.896Z,22.83
2023-01-20T00:18:51.096Z,19.03
2023-01-20T00:21:18.337Z,20.00
2023-01-20T00:23:46.657Z,17.40
2023-01-20T00:26:16.434Z,18.47
2023-01-20T00:28:44.516Z,17.93
2023-01-20T00:31:15.407Z,18.77
2023-01-20T00:33:42.432Z,21.93
2023-01-20T00:36:10.697Z,20.50
2023-01-20T00:38:37.417Z,20.60
2023-01-20T00:41:04.566Z,18.57
2023-01-20T00:43:31.309Z,19.03
2023-01-20T00:45:58.307Z,21.10
2023-01-20T00:48:25.086Z,19.80
2023-01-20T00:50:51.835Z,19.60
2023-01-20T00:53:18.753Z,18.90
2023-01-20T00:55:46.303Z,18.70
2023-01-20T00:58:13.137Z,19.73
2023-01-20T01:00:39.990Z,19.93
2023-01-20T01:03:06.765Z,21.43
2023-01-20T01:05:51.254Z,19.87
2023-01-20T01:08:17.963Z,19.70
2023-01-20T01:10:44.737Z,19.80
2023-01-20T01:13:11.513Z,21.00
2023-01-20T01:15:38.205Z,18.13
2023-01-20T01:18:05.354Z,20.83
2023-01-20T01:20:32.056Z,17.87
2023-01-20T01:22:58.993Z,19.53
2023-01-20T01:25:25.761Z,19.07
2023-01-20T01:27:52.472Z,20.47
2023-01-20T01:30:20.375Z,19.03
2023-01-20T01:32:47.668Z,20.80
2023-01-20T01:35:14.607Z,21.87
2023-01-20T01:37:41.535Z,19.23
2023-01-20T01:40:09.262Z,20.93
2023-01-20T01:42:39.656Z,17.63
2023-01-20T01:45:10.369Z,19.30
2023-01-20T01:47:48.359Z,23.90
2023-01-20T01:50:30.985Z,21.37
2023-01-20T01:52:57.866Z,24.53
2023-01-20T01:55:29.528Z,21.10
2023-01-20T01:57:58.365Z,21.30
2023-01-20T02:00:25.173Z,21.20
2023-01-20T02:02:52.553Z,20.63
2023-01-20T02:05:19.881Z,20.13
2023-01-20T02:07:49.160Z,22.00
2023-01-20T02:10:16.626Z,21.40
2023-01-20T02:12:47.333Z,20.70
2023-01-20T02:15:14.609Z,26.43
2023-01-20T02:17:53.955Z,24.73
2023-01-20T02:20:49.895Z,24.97
2023-01-20T02:23:43.083Z,21.67
2023-01-20T02:26:42.859Z,22.10
2023-01-20T02:29:23.806Z,22.60
2023-01-20T02:32:10.647Z,23.93
2023-01-20T02:34:40.126Z,25.50
2023-01-20T02:37:13.592Z,29.07
2023-01-20T02:39:44.418Z,25.70
2023-01-20T02:42:23.429Z,23.87
2023-01-20T02:44:57.089Z,28.33
2023-01-20T02:47:35.835Z,24.10
2023-01-20T02:50:11.537Z,26.60
2023-01-20T02:52:48.712Z,25.30
2023-01-20T02:55:36.274Z,23.07
2023-01-20T02:58:10.642Z,22.97
2023-01-20T03:00:45.626Z,20.87
2023-01-20T03:03:17.506Z,22.40
2023-01-20T03:05:51.785Z,22.73
2023-01-20T03:08:20.016Z,25.23
2023-01-20T03:10:49.703Z,26.57
2023-01-20T03:13:31.847Z,26.57
2023-01-20T03:16:02.758Z,25.13
2023-01-20T03:18:31.104Z,25.10
2023-01-20T03:20:59.851Z,24.23
2023-01-20T03:23:32.916Z,24.30
2023-01-20T03:26:00.780Z,24.67
2023-01-20T03:28:30.063Z,25.53
2023-01-20T03:30:58.149Z,27.90
2023-01-20T03:33:26.139Z,26.77
2023-01-20T03:35:53.598Z,25.73
2023-01-20T03:38:20.930Z,26.53
2023-01-20T03:40:57.545Z,25.40
2023-01-20T03:43:37.103Z,27.97
2023-01-20T03:46:14.671Z,25.30
2023-01-20T03:48:53.938Z,29.60
2023-01-20T03:52:16.450Z,29.67
2023-01-20T03:54:50.810Z,30.53
2023-01-20T03:57:22.955Z,27.03
2023-01-20T03:59:52.425Z,27.10
2023-01-20T04:02:20.905Z,31.93
2023-01-20T04:04:50.825Z,29.57
2023-01-20T04:07:23.284Z,32.67
2023-01-20T04:10:06.167Z,27.23
2023-01-20T04:12:33.041Z,30.90
2023-01-20T04:15:01.157Z,28.60
2023-01-20T04:17:31.191Z,33.43
2023-01-20T04:20:10.547Z,32.00
2023-01-20T04:22:50.795Z,31.20
2023-01-20T04:25:30.115Z,30.53
2023-01-20T04:27:56.833Z,30.27
2023-01-20T04:30:23.728Z,33.57
2023-01-20T04:32:50.520Z,30.93
2023-01-20T04:35:19.997Z,32.83
2023-01-20T04:37:46.673Z,29.77
2023-01-20T04:40:13.575Z,30.47
2023-01-20T04:42:40.291Z,29.03
2023-01-20T04:45:07.508Z,33.60
2023-01-20T04:47:34.502Z,29.77
2023-01-20T04:50:01.266Z,31.77
2023-01-20T04:52:27.942Z,30.97
2023-01-20T04:54:54.696Z,30.17
2023-01-20T04:57:21.437Z,32.20
2023-01-20T04:59:48.223Z,27.90
2023-01-20T05:02:15.092Z,27.43
2023-01-20T05:04:41.921Z,26.73
2023-01-20T05:07:08.669Z,26.27
2023-01-20T05:09:35.367Z,25.63
2023-01-20T05:12:02.091Z,24.73
2023-01-20T05:14:28.984Z,27.47
2023-01-20T05:16:55.834Z,31.33
2023-01-20T05:19:22.526Z,31.83
2023-01-20T05:21:49.295Z,31.30
2023-01-20T05:24:16.032Z,35.50
2023-01-20T05:26:42.714Z,34.07
2023-01-20T05:29:09.403Z,43.07
2023-01-20T05:31:37.687Z,54.17
2023-01-20T05:34:05.054Z,57.57
2023-01-20T05:36:32.823Z,49.07
2023-01-20T05:38:59.596Z,39.37
2023-01-20T05:41:26.424Z,40.13
2023-01-20T05:43:54.113Z,39.53
2023-01-20T05:46:21.814Z,35.33
2023-01-20T05:48:48.526Z,38.37
2023-01-20T05:51:16.187Z,38.53
2023-01-20T05:53:42.876Z,41.67
2023-01-20T05:56:12.115Z,37.77
2023-01-20T05:58:38.819Z,47.67
2023-01-20T06:01:07.957Z,42.20
2023-01-20T06:03:35.148Z,39.47
2023-01-20T06:06:06.944Z,39.13
2023-01-20T06:08:34.195Z,39.63
2023-01-20T06:11:01.375Z,34.97
2023-01-20T06:13:28.092Z,39.20
2023-01-20T06:15:55.626Z,35.63
2023-01-20T06:18:23.504Z,32.20
2023-01-20T06:20:50.376Z,35.63
2023-01-20T06:23:17.776Z,37.77
2023-01-20T06:25:44.539Z,40.90
2023-01-20T06:28:11.258Z,36.77
2023-01-20T06:30:38.685Z,37.00
2023-01-20T06:33:10.557Z,35.47
2023-01-20T06:35:37.967Z,35.67
2023-01-20T06:38:04.837Z,45.60
2023-01-20T06:40:31.974Z,38.83
2023-01-20T06:42:59.088Z,39.87
2023-01-20T06:45:25.800Z,42.57
2023-01-20T06:47:52.576Z,42.80
2023-01-20T06:50:19.581Z,42.73
2023-01-20T06:52:46.308Z,43.20
2023-01-20T06:55:13.382Z,43.53
2023-01-20T06:57:40.422Z,44.50
2023-01-20T07:00:07.875Z,40.63
2023-01-20T07:02:34.723Z,44.83
2023-01-20T07:05:02.483Z,39.83
2023-01-20T07:07:29.220Z,41.13
2023-01-20T07:09:55.938Z,42.33
2023-01-20T07:12:22.815Z,46.40
2023-01-20T07:14:49.536Z,49.33
2023-01-20T07:17:16.264Z,45.37
2023-01-20T07:19:43.037Z,46.30
2023-01-20T07:22:09.839Z,41.47
2023-01-20T07:24:36.651Z,43.43
2023-01-20T07:27:03.393Z,43.57
2023-01-20T07:29:30.148Z,45.97
2023-01-20T07:31:56.909Z,43.00
2023-01-20T07:34:23.907Z,42.07
2023-01-20T07:36:53.323Z,43.97
2023-01-20T07:39:22.830Z,52.47
2023-01-20T07:41:49.780Z,45.47
2023-01-20T07:44:16.865Z,42.47
2023-01-20T07:46:43.648Z,39.47
2023-01-20T07:49:12.351Z,44.63
2023-01-20T07:51:39.955Z,40.10
2023-01-20T07:54:06.833Z,42.47
2023-01-20T07:56:33.661Z,40.43
2023-01-20T07:59:00.399Z,38.53
2023-01-20T08:01:29.951Z,36.10
2023-01-20T08:03:58.058Z,37.60
2023-01-20T08:06:26.102Z,37.73
2023-01-20T08:08:53.948Z,36.17
2023-01-20T08:11:22.278Z,33.47
2023-01-20T08:13:49.712Z,39.13
2023-01-20T08:16:18.503Z,37.20
2023-01-20T08:18:45.503Z,37.07
2023-01-20T08:21:26.695Z,35.40
2023-01-20T08:23:55.740Z,42.77
2023-01-20T08:26:25.045Z,39.13
2023-01-20T08:28:52.862Z,41.33
2023-01-20T08:31:22.354Z,40.03
2023-01-20T08:33:52.417Z,38.07
2023-01-20T08:36:22.901Z,43.40
2023-01-20T08:38:50.066Z,37.57
2023-01-20T08:41:21.015Z,40.10
2023-01-20T08:43:48.144Z,36.60
2023-01-20T08:46:16.854Z,39.13
2023-01-20T08:48:44.336Z,36.23
2023-01-20T08:51:17.082Z,37.87
2023-01-20T08:53:44.155Z,37.53
2023-01-20T08:56:12.750Z,37.53
2023-01-20T08:58:39.687Z,38.57
2023-01-20T09:01:16.012Z,38.90
2023-01-20T09:03:49.428Z,36.10
2023-01-20T09:06:27.178Z,34.23
2023-01-20T09:08:55.125Z,31.60
2023-01-20T09:11:24.993Z,34.53
2023-01-20T09:13:52.138Z,28.27
2023-01-20T09:16:19.643Z,28.53
2023-01-20T09:18:46.754Z,29.03
2023-01-20T09:21:13.550Z,27.97
2023-01-20T09:23:41.187Z,28.20
2023-01-20T09:26:08.660Z,25.67
2023-01-20T09:28:36.029Z,28.30
2023-01-20T09:31:05.947Z,26.17
2023-01-20T09:33:36.147Z,23.87
2023-01-20T09:36:04.708Z,22.33
2023-01-20T09:38:50.184Z,22.47
2023-01-20T09:41:46.874Z,24.43
2023-01-20T09:44:31.509Z,22.07
2023-01-20T09:47:19.506Z,21.30
2023-01-20T09:50:08.080Z,20.87
2023-01-20T09:52:56.120Z,18.73
2023-01-20T09:55:52.271Z,20.90
2023-01-20T09:58:30.938Z,19.37
2023-01-20T10:01:11.621Z,18.60
2023-01-20T10:03:59.656Z,17.63
2023-01-20T10:06:48.658Z,19.53
2023-01-20T10:09:41.123Z,17.30
2023-01-20T10:12:26.240Z,17.83
2023-01-20T10:15:00.383Z,17.90
2023-01-20T10:17:37.074Z,18.53
2023-01-20T10:20:16.850Z,16.37
2023-01-20T10:23:10.695Z,16.60
2023-01-20T10:25:52.231Z,17.83
2023-01-20T10:28:27.061Z,14.40
2023-01-20T10:30:55.978Z,15.47
2023-01-20T10:33:38.793Z,18.13
2023-01-20T10:36:13.188Z,17.60
2023-01-20T10:38:59.204Z,14.07
2023-01-20T10:41:42.690Z,15.37
2023-01-20T10:44:14.384Z,12.67
2023-01-20T10:47:02.668Z,12.93
2023-01-20T10:49:45.530Z,11.07
2023-01-20T10:52:23.666Z,10.07
2023-01-20T10:55:25.367Z,11.63
2023-01-20T10:58:01.869Z,9.60
2023-01-20T11:00:31.477Z,12.80
2023-01-20T11:03:00.778Z,13.90
2023-01-20T11:05:38.174Z,13.90
2023-01-20T11:08:23.836Z,15.77
2023-01-20T11:10:54.844Z,17.40
2023-01-20T11:13:21.656Z,16.77
2023-01-20T11:15:55.026Z,17.20
2023-01-20T11:18:27.637Z,16.47
2023-01-20T11:21:00.845Z,16.53
2023-01-20T11:23:47.433Z,16.80
2023-01-20T11:26:35.746Z,14.87
2023-01-20T11:29:11.620Z,14.53
2023-01-20T11:31:43.631Z,15.20
2023-01-20T11:34:34.834Z,14.80
2023-01-20T11:37:20.546Z,16.57
2023-01-20T11:39:50.328Z,13.33
2023-01-20T11:42:22.603Z,14.23
2023-01-20T11:44:54.679Z,14.97
2023-01-20T11:47:31.797Z,13.33
2023-01-20T11:50:04.382Z,12.13
2023-01-20T11:52:40.230Z,15.27
2023-01-20T11:55:17.603Z,13.90
2023-01-20T11:57:57.387Z,16.83
2023-01-20T12:00:37.277Z,21.27
2023-01-20T12:03:10.309Z,18.60
2023-01-20T12:05:50.066Z,16.80
2023-01-20T12:08:34.307Z,14.30
2023-01-20T12:11:07.304Z,13.60
2023-01-20T12:14:07.900Z,12.40
2023-01-20T12:16:35.701Z,13.90
2023-01-20T12:19:12.914Z,13.83
2023-01-20T12:21:46.623Z,11.20
2023-01-20T12:24:50.745Z,13.10
2023-01-20T12:27:23.395Z,12.70
2023-01-20T12:29:56.140Z,13.27
2023-01-20T12:32:22.959Z,11.53
2023-01-20T12:34:49.974Z,11.47
2023-01-20T12:37:36.622Z,12.53
2023-01-20T12:40:27.284Z,11.13
2023-01-20T12:43:22.161Z,12.57
2023-01-20T12:45:51.955Z,10.77
2023-01-20T12:48:39.857Z,12.03
2023-01-20T12:51:11.650Z,11.23
2023-01-20T12:53:50.194Z,10.53
2023-01-20T12:56:40.347Z,12.80
2023-01-20T12:59:36.665Z,10.47
2023-01-20T13:02:37.530Z,10.20
2023-01-20T13:05:07.376Z,12.90
2023-01-20T13:08:21.665Z,12.67
2023-01-20T13:11:15.796Z,12.33
2023-01-20T13:14:00.860Z,10.10
2023-01-20T13:16:49.020Z,10.10
2023-01-20T13:19:27.996Z,11.50
2023-01-20T13:22:07.251Z,11.73
2023-01-20T13:24:35.003Z,12.30
2023-01-20T13:27:02.163Z,10.73
2023-01-20T13:29:37.985Z,12.70
2023-01-20T13:32:25.009Z,10.93
2023-01-20T13:34:51.847Z,13.50
2023-01-20T13:37:38.443Z,12.57
2023-01-20T13:40:37.501Z,12.27
2023-01-20T13:43:04.980Z,9.57
2023-01-20T13:45:31.692Z,12.57
2023-01-20T13:48:08.235Z,13.07
2023-01-20T13:50:38.041Z,13.20
2023-01-20T13:53:06.397Z,12.90
2023-01-20T13:55:44.962Z,13.03
2023-01-20T13:58:38.684Z,11.80
2023-01-20T14:01:10.645Z,13.73
2023-01-20T14:03:38.710Z,13.30
2023-01-20T14:06:10.684Z,11.43
2023-01-20T14:08:46.779Z,11.90
2023-01-20T14:11:17.948Z,10.70
2023-01-20T14:13:56.889Z,10.73
2023-01-20T14:16:26.822Z,9.83
2023-01-20T14:18:56.328Z,10.97
2023-01-20T14:21:25.638Z,9.67
2023-01-20T14:23:52.757Z,10.87
2023-01-20T14:26:29.048Z,11.77
2023-01-20T14:28:58.077Z,10.57
2023-01-20T14:31:36.425Z,11.07
2023-01-20T14:34:25.689Z,10.63
2023-01-20T14:36:53.648Z,11.93
2023-01-20T14:39:29.343Z,11.50
2023-01-20T14:41:58.943Z,10.90
2023-01-20T14:44:28.496Z,10.27
2023-01-20T14:47:01.312Z,10.80
2023-01-20T14:49:39.274Z,11.33
2023-01-20T14:52:07.860Z,16.40
2023-01-20T14:54:44.217Z,17.03
2023-01-20T14:57:41.040Z,16.37
2023-01-20T15:00:20.466Z,17.27
2023-01-20T15:03:18.166Z,13.23
2023-01-20T15:05:59.915Z,14.57
2023-01-20T15:08:32.355Z,25.87
2023-01-20T15:11:14.799Z,30.23
2023-01-20T15:14:05.411Z,24.27
2023-01-20T15:16:38.962Z,89.00
2023-01-20T15:19:15.204Z,45.60
2023-01-20T15:21:45.915Z,30.77
2023-01-20T15:24:15.329Z,30.53
2023-01-20T15:26:42.491Z,27.37
2023-01-20T15:29:38.667Z,24.17
2023-01-20T15:32:12.481Z,27.23
2023-01-20T15:34:39.295Z,45.97
2023-01-20T15:37:21.120Z,39.87
2023-01-20T15:39:47.867Z,37.57
2023-01-20T15:42:15.523Z,29.73
2023-01-20T15:44:42.265Z,28.57
2023-01-20T15:47:26.146Z,30.60
2023-01-20T15:49:52.980Z,34.43
2023-01-20T15:52:19.768Z,31.07
2023-01-20T15:54:46.511Z,30.02
2023-01-20T15:57:14.805Z,30.80
2023-01-20T15:59:46.089Z,27.17
2023-01-20T16:02:21.409Z,24.77
2023-01-20T16:04:48.208Z,25.57
2023-01-20T16:07:18.287Z,29.50
2023-01-20T16:09:46.701Z,27.50
2023-01-20T16:12:18.323Z,27.97
2023-01-20T16:14:45.730Z,32.23
2023-01-20T16:17:20.938Z,30.57
2023-01-20T16:19:48.621Z,34.83
2023-01-20T16:22:15.619Z,38.67
2023-01-20T16:24:42.766Z,41.67
2023-01-20T16:27:21.352Z,40.97
2023-01-20T16:29:49.017Z,43.73
2023-01-20T16:32:17.816Z,42.27
2023-01-20T16:34:46.745Z,40.57
2023-01-20T16:37:14.649Z,41.80
2023-01-20T16:39:41.855Z,40.23
2023-01-20T16:42:16.021Z,42.40
2023-01-20T16:44:42.847Z,42.97
2023-01-20T16:47:09.665Z,42.70
2023-01-20T16:49:36.450Z,49.30
2023-01-20T16:52:03.329Z,42.77
2023-01-20T16:54:30.183Z,44.73
2023-01-20T16:56:56.881Z,36.00
2023-01-20T16:59:23.662Z,36.93
2023-01-20T17:01:50.377Z,37.40
2023-01-20T17:04:17.182Z,39.93
2023-01-20T17:06:43.863Z,34.90
2023-01-20T17:09:11.479Z,37.30
2023-01-20T17:11:39.145Z,33.87
2023-01-20T17:14:07.936Z,34.50
2023-01-20T17:16:34.992Z,33.03
2023-01-20T17:19:02.373Z,35.80
2023-01-20T17:21:31.878Z,39.37
2023-01-20T17:24:03.641Z,40.00
2023-01-20T17:26:31.862Z,41.23
2023-01-20T17:29:04.930Z,36.03
2023-01-20T17:31:37.211Z,33.47
2023-01-20T17:34:10.479Z,35.37
2023-01-20T17:36:38.836Z,35.13
2023-01-20T17:39:06.752Z,33.60
2023-01-20T17:41:34.653Z,31.13
2023-01-20T17:44:02.017Z,35.53
2023-01-20T17:46:30.789Z,36.53
2023-01-20T17:49:04.597Z,29.57
2023-01-20T17:51:34.803Z,28.97
2023-01-20T17:54:03.765Z,27.33
2023-01-20T17:56:33.935Z,30.87
2023-01-20T17:59:01.076Z,27.73
2023-01-20T18:01:32.777Z,24.93
2023-01-20T18:04:01.311Z,36.03
2023-01-20T18:06:28.665Z,25.97
2023-01-20T18:08:58.424Z,29.53
2023-01-20T18:11:27.616Z,30.23
2023-01-20T18:13:56.037Z,28.63
2023-01-20T18:16:29.301Z,26.53
2023-01-20T18:18:58.869Z,26.90
2023-01-20T18:21:30.732Z,26.43
2023-01-20T18:23:58.532Z,28.40
2023-01-20T18:26:29.397Z,30.97
2023-01-20T18:28:58.194Z,30.23
2023-01-20T18:31:26.615Z,35.37
2023-01-20T18:33:55.936Z,41.10
2023-01-20T18:36:31.603Z,36.90
2023-01-20T18:39:00.663Z,42.03
2023-01-20T18:41:29.599Z,41.17
2023-01-20T18:43:57.379Z,41.77
2023-01-20T18:46:25.644Z,43.97
2023-01-20T18:48:54.606Z,44.97
2023-01-20T18:51:27.805Z,46.20
2023-01-20T18:54:04.892Z,43.67
2023-01-20T18:56:33.379Z,45.90
2023-01-20T18:59:00.914Z,43.37
2023-01-20T19:01:33.919Z,49.43
2023-01-20T19:04:02.226Z,51.27
2023-01-20T19:06:31.139Z,56.53
2023-01-20T19:08:59.014Z,51.43
2023-01-20T19:11:29.307Z,51.20
2023-01-20T19:13:56.325Z,55.80
2023-01-20T19:16:26.369Z,49.60
2023-01-20T19:18:58.402Z,46.80
2023-01-20T19:21:27.314Z,41.27
2023-01-20T19:24:00.363Z,30.93
2023-01-20T19:26:28.670Z,31.00
2023-01-20T19:29:02.462Z,50.07
2023-01-20T19:31:31.185Z,48.20
2023-01-20T19:33:58.137Z,33.70
2023-01-20T19:36:25.243Z,30.60
2023-01-20T19:38:52.456Z,30.80
2023-01-20T19:41:22.967Z,31.53
2023-01-20T19:43:55.494Z,27.97
2023-01-20T19:46:24.405Z,32.50
2023-01-20T19:48:52.468Z,30.77
2023-01-20T19:51:19.886Z,30.80
2023-01-20T19:53:47.190Z,30.90
2023-01-20T19:56:17.018Z,39.17
2023-01-20T19:58:45.359Z,32.87
2023-01-20T20:01:20.313Z,33.10
2023-01-20T20:03:48.668Z,36.07
2023-01-20T20:06:32.660Z,34.27
2023-01-20T20:09:02.014Z,31.27
2023-01-20T20:11:29.875Z,35.03
2023-01-20T20:13:59.098Z,40.67
2023-01-20T20:16:28.887Z,38.97
2023-01-20T20:18:56.512Z,40.53
2023-01-20T20:21:23.600Z,42.63
2023-01-20T20:23:55.656Z,33.97
2023-01-20T20:26:24.493Z,40.00
2023-01-20T20:28:51.245Z,37.87
2023-01-20T20:31:18.577Z,41.57
2023-01-20T20:33:46.801Z,48.27
2023-01-20T20:36:15.003Z,42.93
2023-01-20T20:38:41.935Z,41.40
2023-01-20T20:41:09.568Z,38.87
2023-01-20T20:43:37.387Z,40.77
2023-01-20T20:46:07.779Z,37.17
2023-01-20T20:48:35.423Z,35.00
2023-01-20T20:51:20.572Z,33.87
2023-01-20T20:53:47.346Z,34.53
2023-01-20T20:56:15.656Z,37.73
2023-01-20T20:59:00.094Z,35.50
2023-01-20T21:01:29.370Z,36.33
2023-01-20T21:03:57.800Z,37.37
2023-01-20T21:06:25.197Z,38.57
2023-01-20T21:08:52.345Z,55.33
2023-01-20T21:11:20.297Z,42.40
2023-01-20T21:13:49.224Z,34.93
2023-01-20T21:16:20.781Z,32.67
2023-01-20T21:18:48.035Z,33.13
2023-01-20T21:21:17.090Z,30.30
2023-01-20T21:23:55.502Z,32.47
2023-01-20T21:26:23.757Z,35.57
2023-01-20T21:28:51.040Z,34.83
2023-01-20T21:31:24.623Z,38.63
2023-01-20T21:33:57.036Z,33.37
2023-01-20T21:36:24.696Z,34.93
2023-01-20T21:38:51.860Z,39.40
2023-01-20T21:41:19.498Z,36.37
2023-01-20T21:44:06.104Z,34.50
2023-01-20T21:46:39.341Z,34.77
2023-01-20T21:49:25.866Z,32.97
2023-01-20T21:52:11.368Z,31.00
2023-01-20T21:54:39.850Z,34.53
2023-01-20T21:57:07.067Z,36.73
2023-01-20T21:59:33.873Z,36.63
2023-01-20T22:02:00.682Z,39.73
2023-01-20T22:04:27.470Z,47.10
2023-01-20T22:06:54.188Z,48.13
2023-01-20T22:09:20.959Z,44.47
2023-01-20T22:11:47.672Z,50.27
2023-01-20T22:14:14.389Z,44.73
2023-01-20T22:16:41.158Z,45.93
2023-01-20T22:19:07.900Z,42.30
2023-01-20T22:21:34.585Z,42.87
2023-01-20T22:24:03.116Z,38.37
2023-01-20T22:26:30.103Z,38.90
2023-01-20T22:28:57.193Z,44.10
2023-01-20T22:31:24.971Z,35.07
2023-01-20T22:33:56.616Z,35.50
2023-01-20T22:36:24.543Z,34.27
2023-01-20T22:38:52.841Z,33.90
2023-01-20T22:41:20.057Z,34.67
2023-01-20T22:43:48.121Z,37.13
2023-01-20T22:46:18.156Z,31.90
2023-01-20T22:48:45.640Z,35.33
2023-01-20T22:51:13.721Z,31.67
2023-01-20T22:53:41.060Z,33.30
2023-01-20T22:56:10.154Z,33.60
2023-01-20T22:58:37.741Z,34.43
2023-01-20T23:01:04.922Z,37.90
2023-01-20T23:03:31.910Z,32.53
2023-01-20T23:06:00.051Z,34.10
2023-01-20T23:08:28.682Z,36.03
2023-01-20T23:11:06.567Z,35.17
2023-01-20T23:13:35.172Z,32.13
2023-01-20T23:16:04.614Z,36.90
2023-01-20T23:18:32.332Z,31.80
2023-01-20T23:20:59.968Z,33.50
2023-01-20T23:23:27.557Z,34.47
2023-01-20T23:26:06.405Z,35.27
2023-01-20T23:28:35.183Z,34.63
2023-01-20T23:31:06.972Z,36.57
2023-01-20T23:33:34.209Z,39.53
2023-01-20T23:36:10.637Z,35.97
2023-01-20T23:38:37.699Z,36.27
2023-01-20T23:41:04.889Z,35.47
2023-01-20T23:43:32.504Z,37.20
2023-01-20T23:46:00.829Z,31.47
2023-01-20T23:48:28.920Z,41.30
2023-01-20T23:50:56.567Z,36.60
2023-01-20T23:53:23.458Z,40.17
2023-01-20T23:55:50.150Z,38.17
2023-01-20T23:58:16.873Z,37.83
